createdAt,value
2023-04-11T00:00:31.473Z,11.27
2023-04-11T00:03:00.084Z,11.22
2023-04-11T00:05:28.509Z,10.89
2023-04-11T00:07:55.885Z,10.98
2023-04-11T00:10:23.578Z,11.01
2023-04-11T00:12:51.143Z,11.00
2023-04-11T00:15:20.042Z,10.92
2023-04-11T00:17:49.103Z,10.95
2023-04-11T00:20:16.868Z,10.95
2023-04-11T00:22:44.286Z,10.74
2023-04-11T00:25:12.242Z,10.65
2023-04-11T00:27:39.833Z,10.79
2023-04-11T00:30:08.040Z,10.68
2023-04-11T00:32:35.813Z,10.66
2023-04-11T00:35:03.365Z,10.63
2023-04-11T00:37:35.926Z,10.61
2023-04-11T00:40:05.739Z,10.47
2023-04-11T00:42:33.716Z,10.53
2023-04-11T00:45:01.192Z,10.50
2023-04-11T00:47:29.458Z,10.42
2023-04-11T00:49:56.839Z,10.36
2023-04-11T00:52:24.255Z,10.37
2023-04-11T00:54:52.043Z,10.36
2023-04-11T00:57:19.425Z,10.48
2023-04-11T00:59:51.059Z,10.37
2023-04-11T01:02:18.936Z,10.15
2023-04-11T01:04:46.563Z,10.13
2023-04-11T01:07:14.298Z,10.11
2023-04-11T01:09:42.239Z,10.14
2023-04-11T01:12:10.734Z,10.12
2023-04-11T01:14:38.490Z,10.18
2023-04-11T01:17:07.877Z,10.07
2023-04-11T01:19:35.616Z,10.05
2023-04-11T01:22:03.342Z,9.95
2023-04-11T01:24:31.684Z,9.89
2023-04-11T01:26:59.356Z,9.75
2023-04-11T01:29:26.728Z,9.86
2023-04-11T01:31:54.565Z,9.80
2023-04-11T01:34:22.685Z,9.89
2023-04-11T01:36:50.234Z,9.78
2023-04-11T01:39:17.891Z,9.63
2023-04-11T01:41:46.075Z,9.67
2023-04-11T01:44:13.705Z,9.64
2023-04-11T01:46:43.091Z,9.66
2023-04-11T01:49:10.547Z,9.71
2023-04-11T01:51:37.958Z,9.71
2023-04-11T01:54:05.820Z,9.58
2023-04-11T01:56:33.258Z,9.48
2023-04-11T01:59:01.604Z,9.51
2023-04-11T02:01:29.387Z,9.45
2023-04-11T02:03:58.229Z,9.50
2023-04-11T02:06:27.460Z,9.40
2023-04-11T02:08:55.306Z,9.31
2023-04-11T02:11:23.163Z,9.16
2023-04-11T02:13:51.772Z,9.14
2023-04-11T02:16:20.729Z,9.26
2023-04-11T02:18:48.859Z,9.34
2023-04-11T02:21:16.287Z,9.04
2023-04-11T02:23:43.773Z,9.19
2023-04-11T02:26:13.097Z,9.23
2023-04-11T02:28:40.488Z,9.15
2023-04-11T02:31:08.088Z,9.11
2023-04-11T02:33:35.909Z,9.12
2023-04-11T02:36:03.505Z,9.12
2023-04-11T02:38:30.981Z,9.02
2023-04-11T02:41:00.177Z,9.02
2023-04-11T02:43:27.594Z,9.05
2023-04-11T02:46:01.973Z,8.95
2023-04-11T02:48:37.737Z,8.88
2023-04-11T02:51:05.693Z,8.90
2023-04-11T02:53:33.197Z,8.89
2023-04-11T02:56:01.401Z,8.94
2023-04-11T02:58:29.056Z,8.94
2023-04-11T03:00:57.456Z,8.80
2023-04-11T03:03:26.384Z,8.92
2023-04-11T03:05:54.326Z,8.91
2023-04-11T03:08:22.136Z,8.88
2023-04-11T03:10:50.184Z,8.87
2023-04-11T03:13:17.685Z,8.90
2023-04-11T03:15:45.429Z,9.00
2023-04-11T03:18:13.471Z,9.00
2023-04-11T03:20:41.730Z,8.95
2023-04-11T03:23:10.663Z,8.83
2023-04-11T03:25:40.581Z,8.83
2023-04-11T03:28:08.069Z,8.76
2023-04-11T03:30:35.502Z,8.82
2023-04-11T03:33:03.390Z,8.98
2023-04-11T03:35:31.362Z,8.99
2023-04-11T03:37:58.982Z,8.94
2023-04-11T03:40:26.743Z,8.91
2023-04-11T03:42:54.891Z,9.00
2023-04-11T03:45:22.409Z,8.94
2023-04-11T03:47:52.809Z,9.01
2023-04-11T03:50:21.801Z,8.87
2023-04-11T03:52:50.495Z,8.94
2023-04-11T03:55:18.516Z,9.07
2023-04-11T03:57:46.306Z,9.00
2023-04-11T04:00:14.844Z,9.10
2023-04-11T04:02:42.641Z,9.19
2023-04-11T04:05:11.583Z,9.12
2023-04-11T04:07:39.972Z,9.17
2023-04-11T04:10:08.182Z,9.14
2023-04-11T04:12:36.016Z,9.14
2023-04-11T04:15:04.245Z,9.14
2023-04-11T04:17:31.867Z,9.17
2023-04-11T04:19:59.918Z,9.17
2023-04-11T04:22:29.757Z,9.19
2023-04-11T04:25:00.418Z,9.25
2023-04-11T04:27:28.458Z,9.19
2023-04-11T04:29:59.987Z,9.24
2023-04-11T04:32:32.654Z,9.19
2023-04-11T04:35:01.513Z,9.14
2023-04-11T04:37:29.176Z,9.23
2023-04-11T04:40:02.154Z,9.21
2023-04-11T04:42:31.331Z,9.13
2023-04-11T04:45:00.507Z,9.33
2023-04-11T04:47:33.293Z,9.32
2023-04-11T04:50:01.387Z,9.45
2023-04-11T04:52:29.482Z,9.35
2023-04-11T04:54:58.175Z,9.23
2023-04-11T04:57:27.736Z,9.28
2023-04-11T04:59:56.787Z,9.48
2023-04-11T05:02:26.591Z,9.61
2023-04-11T05:04:55.453Z,9.71
2023-04-11T05:07:23.554Z,9.77
2023-04-11T05:09:51.214Z,9.97
2023-04-11T05:12:21.420Z,10.14
2023-04-11T05:14:48.842Z,10.28
2023-04-11T05:17:16.373Z,10.48
2023-04-11T05:19:44.228Z,10.59
2023-04-11T05:22:11.728Z,10.82
2023-04-11T05:24:39.599Z,10.94
2023-04-11T05:27:07.507Z,11.20
2023-04-11T05:29:35.312Z,11.41
2023-04-11T05:32:03.045Z,11.64
2023-04-11T05:34:32.350Z,11.82
2023-04-11T05:36:59.998Z,11.95
2023-04-11T05:39:27.455Z,12.27
2023-04-11T05:41:57.112Z,12.22
2023-04-11T05:44:24.525Z,12.40
2023-04-11T05:46:51.882Z,12.65
2023-04-11T05:49:19.614Z,12.77
2023-04-11T05:51:46.974Z,12.77
2023-04-11T05:54:20.959Z,12.83
2023-04-11T05:56:48.658Z,12.88
2023-04-11T05:59:17.014Z,13.21
2023-04-11T06:01:46.176Z,13.15
2023-04-11T06:04:14.026Z,13.23
2023-04-11T06:06:42.899Z,13.34
2023-04-11T06:09:10.829Z,13.41
2023-04-11T06:11:38.539Z,13.37
2023-04-11T06:14:05.974Z,13.38
2023-04-11T06:16:36.668Z,13.53
2023-04-11T06:19:05.089Z,13.66
2023-04-11T06:21:32.886Z,13.78
2023-04-11T06:24:09.244Z,13.85
2023-04-11T06:26:37.373Z,14.20
2023-04-11T06:29:05.750Z,14.37
2023-04-11T06:31:33.880Z,14.29
2023-04-11T06:34:01.923Z,14.37
2023-04-11T06:36:30.277Z,14.56
2023-04-11T06:38:57.691Z,14.73
2023-04-11T06:41:25.466Z,15.13
2023-04-11T06:43:53.023Z,15.34
2023-04-11T06:46:20.429Z,15.44
2023-04-11T06:48:48.094Z,15.67
2023-04-11T06:51:15.517Z,16.03
2023-04-11T06:53:42.896Z,15.99
2023-04-11T06:56:10.806Z,16.15
2023-04-11T06:58:38.227Z,16.39
2023-04-11T07:01:06.302Z,16.41
2023-04-11T07:03:34.131Z,16.41
2023-04-11T07:06:01.711Z,16.55
2023-04-11T07:08:29.465Z,16.75
2023-04-11T07:10:57.176Z,17.02
2023-04-11T07:13:24.890Z,17.11
2023-04-11T07:15:52.397Z,17.20
2023-04-11T07:18:20.312Z,17.33
2023-04-11T07:20:48.642Z,17.46
2023-04-11T07:23:16.095Z,17.63
2023-04-11T07:25:45.024Z,17.70
2023-04-11T07:28:12.992Z,18.06
2023-04-11T07:30:41.442Z,18.00
2023-04-11T07:33:09.361Z,18.00
2023-04-11T07:35:38.407Z,18.10
2023-04-11T07:38:06.308Z,17.98
2023-04-11T07:40:34.013Z,17.88
2023-04-11T07:43:01.874Z,17.87
2023-04-11T07:45:29.465Z,17.77
2023-04-11T07:47:57.137Z,17.83
2023-04-11T07:50:24.589Z,17.97
2023-04-11T07:52:52.095Z,17.82
2023-04-11T07:55:19.764Z,17.97
2023-04-11T07:57:47.197Z,17.83
2023-04-11T08:00:22.175Z,17.91
2023-04-11T08:02:51.087Z,17.90
2023-04-11T08:05:19.246Z,17.91
2023-04-11T08:07:47.018Z,17.73
2023-04-11T08:10:14.823Z,17.71
2023-04-11T08:12:42.253Z,17.74
2023-04-11T08:15:09.981Z,17.56
2023-04-11T08:17:38.396Z,17.57
2023-04-11T08:20:09.163Z,17.69
2023-04-11T08:22:36.622Z,17.84
2023-04-11T08:25:04.935Z,17.80
2023-04-11T08:27:32.346Z,17.81
2023-04-11T08:29:59.929Z,17.70
2023-04-11T08:32:27.698Z,17.92
2023-04-11T08:34:55.250Z,17.96
2023-04-11T08:37:22.633Z,17.96
2023-04-11T08:39:50.430Z,18.16
2023-04-11T08:42:28.591Z,18.21
2023-04-11T08:44:58.702Z,17.98
2023-04-11T08:47:26.530Z,18.01
2023-04-11T08:49:54.388Z,18.03
2023-04-11T08:52:23.359Z,18.16
2023-04-11T08:54:57.354Z,18.26
2023-04-11T08:57:31.499Z,18.12
2023-04-11T09:00:00.529Z,18.19
2023-04-11T09:02:28.344Z,18.31
2023-04-11T09:04:57.720Z,18.32
2023-04-11T09:07:25.456Z,18.29
2023-04-11T09:09:53.281Z,18.35
2023-04-11T09:12:29.587Z,18.24
2023-04-11T09:14:57.546Z,18.31
2023-04-11T09:17:25.084Z,18.51
2023-04-11T09:19:52.499Z,18.32
2023-04-11T09:22:20.425Z,18.42
2023-04-11T09:25:02.114Z,18.57
2023-04-11T09:27:29.864Z,18.57
2023-04-11T09:29:57.235Z,18.81
2023-04-11T09:32:34.675Z,18.74
2023-04-11T09:35:25.197Z,18.88
2023-04-11T09:37:57.491Z,18.89
2023-04-11T09:40:26.888Z,18.87
2023-04-11T09:43:02.405Z,18.85
2023-04-11T09:45:38.162Z,18.93
2023-04-11T09:48:08.998Z,19.04
2023-04-11T09:50:38.542Z,19.15
2023-04-11T09:53:11.039Z,19.13
2023-04-11T09:55:39.629Z,18.98
2023-04-11T09:58:07.907Z,19.09
2023-04-11T10:00:36.436Z,19.20
2023-04-11T10:03:04.223Z,19.43
2023-04-11T10:05:31.921Z,19.39
2023-04-11T10:08:05.654Z,19.46
2023-04-11T10:10:33.497Z,19.68
2023-04-11T10:13:00.958Z,19.66
2023-04-11T10:15:29.021Z,19.90
2023-04-11T10:18:13.606Z,19.86
2023-04-11T10:20:50.530Z,20.07
2023-04-11T10:23:18.244Z,19.95
2023-04-11T10:25:50.503Z,19.90
2023-04-11T10:28:36.026Z,19.84
2023-04-11T10:31:13.202Z,19.84
2023-04-11T10:34:16.787Z,19.86
2023-04-11T10:37:07.738Z,19.75
2023-04-11T10:39:53.774Z,19.82
2023-04-11T10:42:27.943Z,19.73
2023-04-11T10:45:21.937Z,19.82
2023-04-11T10:47:58.611Z,19.74
2023-04-11T10:50:26.430Z,20.09
2023-04-11T10:52:58.020Z,19.99
2023-04-11T10:55:27.196Z,20.12
2023-04-11T10:58:08.721Z,20.12
2023-04-11T11:00:51.667Z,20.22
2023-04-11T11:03:20.101Z,20.37
2023-04-11T11:05:57.365Z,20.28
2023-04-11T11:08:34.562Z,20.29
2023-04-11T11:11:06.927Z,20.47
2023-04-11T11:13:51.793Z,20.68
2023-04-11T11:16:22.035Z,20.40
2023-04-11T11:18:54.533Z,20.15
2023-04-11T11:21:28.900Z,20.14
2023-04-11T11:24:01.002Z,20.37
2023-04-11T11:26:43.362Z,20.58
2023-04-11T11:29:11.339Z,20.65
2023-04-11T11:31:41.782Z,20.35
2023-04-11T11:34:22.659Z,20.52
2023-04-11T11:36:51.176Z,20.56
2023-04-11T11:39:20.372Z,20.61
2023-04-11T11:41:49.378Z,20.58
2023-04-11T11:44:28.175Z,20.78
2023-04-11T11:47:02.336Z,21.05
2023-04-11T11:49:56.582Z,20.81
2023-04-11T11:52:33.891Z,20.55
2023-04-11T11:55:03.473Z,20.49
2023-04-11T11:57:31.941Z,20.32
2023-04-11T12:00:01.402Z,19.85
2023-04-11T12:02:29.312Z,20.04
2023-04-11T12:05:00.109Z,20.36
2023-04-11T12:07:32.727Z,20.61
2023-04-11T12:10:02.009Z,20.62
2023-04-11T12:12:36.914Z,20.78
2023-04-11T12:15:14.886Z,20.86
2023-04-11T12:17:43.072Z,21.01
2023-04-11T12:20:11.251Z,21.07
2023-04-11T12:22:38.929Z,21.08
2023-04-11T12:25:08.103Z,20.88
2023-04-11T12:27:40.293Z,20.99
2023-04-11T12:30:08.877Z,21.04
2023-04-11T12:32:36.950Z,20.85
2023-04-11T12:35:05.629Z,20.94
2023-04-11T12:37:33.604Z,21.04
2023-04-11T12:40:01.781Z,20.96
2023-04-11T12:42:29.211Z,20.74
2023-04-11T12:44:56.603Z,20.97
2023-04-11T12:47:24.355Z,21.03
2023-04-11T12:49:51.993Z,21.10
2023-04-11T12:52:19.352Z,20.98
2023-04-11T12:54:47.090Z,21.15
2023-04-11T12:57:14.597Z,21.21
2023-04-11T12:59:42.080Z,20.91
2023-04-11T13:02:09.876Z,20.68
2023-04-11T13:04:37.392Z,20.29
2023-04-11T13:07:04.924Z,20.35
2023-04-11T13:09:34.271Z,20.39
2023-04-11T13:12:01.993Z,20.45
2023-04-11T13:14:29.790Z,20.53
2023-04-11T13:16:57.612Z,20.70
2023-04-11T13:19:25.071Z,20.77
2023-04-11T13:21:52.706Z,20.57
2023-04-11T13:24:20.333Z,20.52
2023-04-11T13:26:47.715Z,20.86
2023-04-11T13:29:15.170Z,20.61
2023-04-11T13:31:42.993Z,20.50
2023-04-11T13:34:10.830Z,20.30
2023-04-11T13:36:38.315Z,20.44
2023-04-11T13:39:06.083Z,20.25
2023-04-11T13:41:33.454Z,20.43
2023-04-11T13:44:00.861Z,20.32
2023-04-11T13:46:28.590Z,20.09
2023-04-11T13:48:56.283Z,19.97
2023-04-11T13:51:23.964Z,19.92
2023-04-11T13:53:51.633Z,20.00
2023-04-11T13:56:20.535Z,19.72
2023-04-11T13:58:47.963Z,19.52
2023-04-11T14:01:15.623Z,19.50
2023-04-11T14:03:44.809Z,19.34
2023-04-11T14:06:12.402Z,19.40
2023-04-11T14:08:40.066Z,18.86
2023-04-11T14:11:07.834Z,19.01
2023-04-11T14:13:35.234Z,18.87
2023-04-11T14:16:08.921Z,18.59
2023-04-11T14:18:37.094Z,18.62
2023-04-11T14:21:08.198Z,18.23
2023-04-11T14:23:35.872Z,18.28
2023-04-11T14:26:03.660Z,18.19
2023-04-11T14:28:31.104Z,18.04
2023-04-11T14:30:58.591Z,17.89
2023-04-11T14:33:27.093Z,17.88
2023-04-11T14:35:54.544Z,17.82
2023-04-11T14:38:21.972Z,17.67
2023-04-11T14:40:49.693Z,17.71
2023-04-11T14:43:17.092Z,17.27
2023-04-11T14:45:44.489Z,17.39
2023-04-11T14:48:12.223Z,17.35
2023-04-11T14:50:39.759Z,16.99
2023-04-11T14:53:07.231Z,16.62
2023-04-11T14:55:34.897Z,16.22
2023-04-11T14:58:02.353Z,16.34
2023-04-11T15:00:29.765Z,16.14
2023-04-11T15:02:57.775Z,15.55
2023-04-11T15:05:25.706Z,15.31
2023-04-11T15:07:53.178Z,15.20
2023-04-11T15:10:22.848Z,15.23
2023-04-11T15:12:50.751Z,14.77
2023-04-11T15:15:18.441Z,14.52
2023-04-11T15:17:47.665Z,14.53
2023-04-11T15:20:15.973Z,14.25
2023-04-11T15:22:45.084Z,14.30
2023-04-11T15:25:14.906Z,14.22
2023-04-11T15:27:42.719Z,14.19
2023-04-11T15:30:11.299Z,14.05
2023-04-11T15:32:43.695Z,14.20
2023-04-11T15:35:11.290Z,14.13
2023-04-11T15:37:38.883Z,14.04
2023-04-11T15:40:07.805Z,14.04
2023-04-11T15:42:36.931Z,13.86
2023-04-11T15:45:05.177Z,13.64
2023-04-11T15:47:33.869Z,13.82
2023-04-11T15:50:04.083Z,13.83
2023-04-11T15:52:31.783Z,13.98
2023-04-11T15:54:59.222Z,13.92
2023-04-11T15:57:28.291Z,13.67
2023-04-11T15:59:56.061Z,13.89
2023-04-11T16:02:23.925Z,13.84
2023-04-11T16:04:54.043Z,13.88
2023-04-11T16:07:23.306Z,14.07
2023-04-11T16:09:50.850Z,14.32
2023-04-11T16:12:18.698Z,14.56
2023-04-11T16:14:46.381Z,14.63
2023-04-11T16:17:18.944Z,14.75
2023-04-11T16:19:47.287Z,14.74
2023-04-11T16:22:14.966Z,14.77
2023-04-11T16:24:42.412Z,14.71
2023-04-11T16:27:10.094Z,14.80
2023-04-11T16:29:37.570Z,14.62
2023-04-11T16:32:05.118Z,14.72
2023-04-11T16:34:32.930Z,14.94
2023-04-11T16:37:01.237Z,14.79
2023-04-11T16:39:28.675Z,14.84
2023-04-11T16:41:57.219Z,14.46
2023-04-11T16:44:24.563Z,14.61
2023-04-11T16:46:51.993Z,14.70
2023-04-11T16:49:19.718Z,14.81
2023-04-11T16:51:47.188Z,14.76
2023-04-11T16:54:15.041Z,14.74
2023-04-11T16:56:43.184Z,14.83
2023-04-11T16:59:12.225Z,14.83
2023-04-11T17:01:41.107Z,14.62
2023-04-11T17:04:09.411Z,14.72
2023-04-11T17:06:37.083Z,14.74
2023-04-11T17:09:06.430Z,14.63
2023-04-11T17:11:35.646Z,14.46
2023-04-11T17:14:04.150Z,14.51
2023-04-11T17:16:31.671Z,14.30
2023-04-11T17:18:59.303Z,14.35
2023-04-11T17:21:27.407Z,14.51
2023-04-11T17:23:54.801Z,14.70
2023-04-11T17:26:22.514Z,14.77
2023-04-11T17:28:49.993Z,14.69
2023-04-11T17:31:18.759Z,14.76
2023-04-11T17:33:46.546Z,14.65
2023-04-11T17:36:14.153Z,14.47
2023-04-11T17:38:43.351Z,14.74
2023-04-11T17:41:14.937Z,14.61
2023-04-11T17:43:43.601Z,14.30
2023-04-11T17:46:12.405Z,13.75
2023-04-11T17:48:39.996Z,14.16
2023-04-11T17:51:07.445Z,14.03
2023-04-11T17:53:35.136Z,13.74
2023-04-11T17:56:04.610Z,13.95
2023-04-11T17:58:32.195Z,13.95
2023-04-11T18:00:59.897Z,13.81
2023-04-11T18:03:28.241Z,13.67
2023-04-11T18:05:56.669Z,13.52
2023-04-11T18:08:39.177Z,13.48
2023-04-11T18:11:14.347Z,13.15
2023-04-11T18:13:44.652Z,13.25
2023-04-11T18:16:12.404Z,13.38
2023-04-11T18:18:40.131Z,12.70
2023-04-11T18:21:08.126Z,12.72
2023-04-11T18:23:35.873Z,12.71
2023-04-11T18:26:03.663Z,13.00
2023-04-11T18:28:31.043Z,13.00
2023-04-11T18:30:58.543Z,12.55
2023-04-11T18:33:26.295Z,12.30
2023-04-11T18:35:53.712Z,12.42
2023-04-11T18:38:21.248Z,12.70
2023-04-11T18:40:49.478Z,12.68
2023-04-11T18:43:17.655Z,12.65
2023-04-11T18:45:45.265Z,12.45
2023-04-11T18:48:14.046Z,12.77
2023-04-11T18:50:43.007Z,12.65
2023-04-11T18:55:40.657Z,12.84
2023-04-11T18:58:09.763Z,12.77
2023-04-11T19:00:39.637Z,12.75
2023-04-11T19:03:15.140Z,12.67
2023-04-11T19:05:44.057Z,12.86
2023-04-11T19:08:11.901Z,12.88
2023-04-11T19:10:39.303Z,12.70
2023-04-11T19:13:06.941Z,12.88
2023-04-11T19:15:34.673Z,12.84
2023-04-11T19:18:02.441Z,12.75
2023-04-11T19:20:29.940Z,12.93
2023-04-11T19:22:57.885Z,12.81
2023-04-11T19:25:25.599Z,12.69
2023-04-11T19:27:53.082Z,12.47
2023-04-11T19:30:21.034Z,12.53
2023-04-11T19:32:48.656Z,12.58
2023-04-11T19:35:17.141Z,12.61
2023-04-11T19:37:44.839Z,12.84
2023-04-11T19:40:13.766Z,13.02
2023-04-11T19:42:42.146Z,12.87
2023-04-11T19:45:11.494Z,13.02
2023-04-11T19:47:40.260Z,13.15
2023-04-11T19:50:13.213Z,13.24
2023-04-11T19:52:42.202Z,13.10
2023-04-11T19:55:11.545Z,12.95
2023-04-11T19:57:39.093Z,13.00
2023-04-11T20:00:17.054Z,12.86
2023-04-11T20:02:46.708Z,12.68
2023-04-11T20:05:16.473Z,12.86
2023-04-11T20:07:45.152Z,12.74
2023-04-11T20:10:14.140Z,12.43
2023-04-11T20:12:41.671Z,12.59
2023-04-11T20:15:09.594Z,12.49
2023-04-11T20:17:37.333Z,12.49
2023-04-11T20:20:06.032Z,12.56
2023-04-11T20:22:33.526Z,11.85
2023-04-11T20:25:01.432Z,11.75
2023-04-11T20:27:28.841Z,11.12
2023-04-11T20:29:56.764Z,11.18
2023-04-11T20:32:24.577Z,10.72
2023-04-11T20:34:52.246Z,10.74
2023-04-11T20:37:22.596Z,10.67
2023-04-11T20:39:51.538Z,10.74
2023-04-11T20:42:20.445Z,11.03
2023-04-11T20:44:47.974Z,10.41
2023-04-11T20:47:15.632Z,10.96
2023-04-11T20:49:45.648Z,11.18
2023-04-11T20:52:13.279Z,11.23
2023-04-11T20:54:41.039Z,11.51
2023-04-11T20:57:08.496Z,11.56
2023-04-11T20:59:38.086Z,11.70
2023-04-11T21:02:05.938Z,11.90
2023-04-11T21:04:33.581Z,11.84
2023-04-11T21:07:01.405Z,11.98
2023-04-11T21:09:29.228Z,11.98
2023-04-11T21:11:56.632Z,11.92
2023-04-11T21:14:24.326Z,11.98
2023-04-11T21:16:52.296Z,11.83
2023-04-11T21:19:19.750Z,12.04
2023-04-11T21:21:47.149Z,11.88
2023-04-11T21:24:14.835Z,11.90
2023-04-11T21:26:42.496Z,11.38
2023-04-11T21:29:12.057Z,11.29
2023-04-11T21:31:39.730Z,11.29
2023-04-11T21:34:07.181Z,11.32
2023-04-11T21:36:34.688Z,11.16
2023-04-11T21:39:02.401Z,10.91
2023-04-11T21:41:29.872Z,10.78
2023-04-11T21:43:57.376Z,10.98
2023-04-11T21:46:25.588Z,10.62
2023-04-11T21:48:53.066Z,10.46
2023-04-11T21:51:20.635Z,10.35
2023-04-11T21:53:48.277Z,10.50
2023-04-11T21:56:15.976Z,10.42
2023-04-11T21:58:43.393Z,9.78
2023-04-11T22:01:11.733Z,10.08
2023-04-11T22:03:42.177Z,10.07
2023-04-11T22:06:10.435Z,9.90
2023-04-11T22:08:42.203Z,9.64
2023-04-11T22:11:14.628Z,9.45
2023-04-11T22:13:46.251Z,9.36
2023-04-11T22:16:14.261Z,9.45
2023-04-11T22:18:47.455Z,9.64
2023-04-11T22:21:21.934Z,9.74
2023-04-11T22:23:54.462Z,9.94
2023-04-11T22:26:34.877Z,9.43
2023-04-11T22:29:05.630Z,9.52
2023-04-11T22:31:38.683Z,9.82
2023-04-11T22:34:08.839Z,10.05
2023-04-11T22:36:36.929Z,9.91
2023-04-11T22:39:07.267Z,9.96
2023-04-11T22:41:35.965Z,9.97
2023-04-11T22:44:04.006Z,10.00
2023-04-11T22:46:33.962Z,10.04
2023-04-11T22:49:01.626Z,10.13
2023-04-11T22:51:30.184Z,10.15
2023-04-11T22:53:58.058Z,10.18
2023-04-11T22:56:25.734Z,9.80
2023-04-11T22:58:53.395Z,9.82
2023-04-11T23:01:21.058Z,9.93
2023-04-11T23:03:48.479Z,9.79
2023-04-11T23:06:16.466Z,9.79
2023-04-11T23:08:43.887Z,9.65
2023-04-11T23:11:11.484Z,9.55
2023-04-11T23:13:39.188Z,9.62
2023-04-11T23:16:09.032Z,9.49
2023-04-11T23:18:36.641Z,9.27
2023-04-11T23:21:04.404Z,8.99
2023-04-11T23:23:31.763Z,8.84
2023-04-11T23:25:59.977Z,8.93
2023-04-11T23:28:29.058Z,9.15
2023-04-11T23:30:56.612Z,9.11
2023-04-11T23:33:25.679Z,9.02
2023-04-11T23:35:53.474Z,8.98
2023-04-11T23:38:21.489Z,8.85
2023-04-11T23:40:49.318Z,9.07
2023-04-11T23:43:16.999Z,9.39
2023-04-11T23:45:44.490Z,9.57
2023-04-11T23:48:11.938Z,9.58
2023-04-11T23:50:39.592Z,9.46
2023-04-11T23:53:06.978Z,9.33
2023-04-11T23:55:35.178Z,9.24
2023-04-11T23:58:03.706Z,9.20
